createdAt,value
2017-06-27T18:57:53.388Z,132
2017-06-27T18:58:15.859Z,132
2017-06-27T18:58:37.206Z,136
2017-06-27T18:58:58.333Z,132
2017-06-27T18:59:20.042Z,132
2017-06-27T18:59:41.432Z,132
2017-06-27T19:00:03.450Z,132
2017-06-27T19:00:24.115Z,128
2017-06-27T19:00:46.892Z,128
2017-06-27T19:01:08.070Z,128
2017-06-27T19:01:29.607Z,128
2017-06-27T19:01:51.929Z,124
2017-06-27T19:02:17.485Z,120
2017-06-27T19:02:39.002Z,120
2017-06-27T19:02:59.704Z,120
2017-06-27T19:03:21.982Z,120
2017-06-27T19:03:43.607Z,116
2017-06-27T19:04:04.978Z,116
2017-06-27T19:04:26.379Z,112
2017-06-27T19:04:47.435Z,112
2017-06-27T19:05:10.976Z,112
2017-06-27T19:05:32.547Z,108
2017-06-27T19:05:53.962Z,104
2017-06-27T19:06:14.639Z,104
2017-06-27T19:06:36.635Z,104
2017-06-27T19:06:58.483Z,104
2017-06-27T19:07:20.378Z,100
2017-06-27T19:07:44.285Z,100
2017-06-27T19:08:07.197Z,100
2017-06-27T19:08:30.468Z,96
2017-06-27T19:08:51.731Z,96
2017-06-27T19:09:12.877Z,96
2017-06-27T19:09:33.530Z,92
2017-06-27T19:09:54.188Z,92
2017-06-27T19:10:14.837Z,92
2017-06-27T19:10:36.385Z,88
2017-06-27T19:10:57.042Z,88
2017-06-27T19:11:17.692Z,84
2017-06-27T19:11:38.355Z,88
2017-06-27T19:11:59.045Z,84
2017-06-27T19:12:20.482Z,84
2017-06-27T19:12:41.973Z,84
2017-06-27T19:13:02.654Z,84
2017-06-27T19:13:23.294Z,84
2017-06-27T19:13:45.453Z,80
2017-06-27T19:14:06.971Z,84
2017-06-27T19:14:27.635Z,80
2017-06-27T19:14:48.290Z,80
2017-06-27T19:15:08.961Z,76
2017-06-27T19:15:29.640Z,80
2017-06-27T19:15:50.293Z,76
2017-06-27T19:16:10.948Z,76
2017-06-27T19:16:31.603Z,76
2017-06-27T19:16:52.255Z,72
2017-06-27T19:17:12.920Z,72
2017-06-27T19:17:33.569Z,72
2017-06-27T19:17:55.982Z,68
2017-06-27T19:18:16.629Z,72
2017-06-27T19:18:37.873Z,68
2017-06-27T19:18:58.586Z,64
2017-06-27T19:19:19.258Z,68
2017-06-27T19:19:41.441Z,64
2017-06-27T19:20:02.144Z,64
2017-06-27T19:20:22.785Z,64
2017-06-27T19:20:43.472Z,64
2017-06-27T19:21:04.138Z,60
2017-06-27T19:21:24.810Z,60
2017-06-27T19:21:45.461Z,60
2017-06-27T19:22:07.044Z,56
2017-06-27T19:22:27.745Z,56
2017-06-27T19:22:48.400Z,56
2017-06-27T19:23:09.899Z,56
2017-06-27T19:23:30.563Z,52
2017-06-27T19:23:51.233Z,52
2017-06-27T19:24:11.942Z,52
2017-06-27T19:24:32.591Z,48
2017-06-27T19:24:53.245Z,48
2017-06-27T19:25:13.900Z,44
2017-06-27T19:25:34.551Z,48
2017-06-27T19:25:55.978Z,44
2017-06-27T19:26:16.636Z,40
2017-06-27T19:26:39.060Z,44
2017-06-27T19:26:59.724Z,40
2017-06-27T19:27:20.425Z,44
2017-06-27T19:27:42.082Z,40
2017-06-27T19:28:02.741Z,36
2017-06-27T19:28:24.230Z,40
2017-06-27T19:28:45.382Z,36
2017-06-27T19:29:06.028Z,36
2017-06-27T19:29:27.501Z,32
2017-06-27T19:29:48.207Z,36
2017-06-27T19:30:10.397Z,32
2017-06-27T19:30:31.540Z,32
2017-06-27T19:30:52.212Z,32
2017-06-27T19:31:13.513Z,32
2017-06-27T19:31:34.178Z,32
2017-06-27T19:31:54.889Z,32
2017-06-27T19:32:16.515Z,28
2017-06-27T19:32:37.160Z,28
2017-06-27T19:32:57.816Z,28
2017-06-27T19:33:18.562Z,28
2017-06-27T19:33:40.154Z,28
2017-06-27T19:34:00.921Z,28
2017-06-27T19:34:21.618Z,24
2017-06-27T19:34:42.960Z,28
2017-06-27T19:35:04.555Z,28
2017-06-27T19:35:25.482Z,24
2017-06-27T19:35:46.224Z,24
2017-06-27T19:36:10.385Z,20
2017-06-27T19:36:31.160Z,24
2017-06-27T19:36:52.511Z,24
2017-06-27T19:37:13.909Z,20
2017-06-27T19:37:34.636Z,20
2017-06-27T19:37:56.183Z,20
2017-06-27T19:38:17.886Z,20
2017-06-27T19:38:39.860Z,20
2017-06-27T19:39:02.001Z,20
2017-06-27T19:39:23.848Z,16
2017-06-27T19:39:44.819Z,20
2017-06-27T19:40:07.062Z,20
2017-06-27T19:40:28.982Z,16
2017-06-27T19:40:51.097Z,16
2017-06-27T19:41:13.919Z,16
2017-06-27T19:41:35.178Z,16
2017-06-27T19:41:56.419Z,16
2017-06-27T19:42:18.946Z,12
2017-06-27T19:42:40.528Z,12
2017-06-27T19:43:02.518Z,16
2017-06-27T19:43:37.837Z,12
2017-06-27T19:43:59.724Z,12
2017-06-27T19:44:20.406Z,8
2017-06-27T19:44:42.396Z,12
2017-06-27T19:45:03.093Z,12
2017-06-27T19:45:23.756Z,12
2017-06-27T19:45:44.399Z,8
2017-06-27T19:46:05.998Z,8
2017-06-27T19:46:27.441Z,12
2017-06-27T19:46:48.148Z,12
2017-06-27T19:47:09.504Z,8
2017-06-27T19:47:30.209Z,8
2017-06-27T19:47:51.721Z,8
2017-06-27T19:48:13.038Z,8
2017-06-27T19:48:33.719Z,8
2017-06-27T19:48:55.025Z,4
2017-06-27T19:49:15.752Z,4
2017-06-27T19:49:38.025Z,8
2017-06-27T19:49:59.301Z,8
2017-06-27T19:50:21.125Z,8
2017-06-27T19:50:44.522Z,8
2017-06-27T19:51:05.219Z,4
2017-06-27T19:51:25.901Z,4
2017-06-27T19:51:48.532Z,4
2017-06-27T19:52:10.099Z,4
2017-06-27T19:52:31.516Z,8
2017-06-27T19:52:52.202Z,8
2017-06-27T19:53:13.157Z,4
2017-06-27T19:53:33.846Z,4
2017-06-27T19:53:55.996Z,4
2017-06-27T19:54:16.658Z,4
2017-06-27T19:54:38.937Z,4
2017-06-27T19:55:01.435Z,4
2017-06-27T19:55:22.176Z,4
2017-06-27T19:55:42.867Z,4
2017-06-27T19:56:03.510Z,4
2017-06-27T19:56:24.213Z,0
2017-06-27T19:56:44.940Z,0
2017-06-27T19:57:05.633Z,4
2017-06-27T19:57:26.246Z,4
2017-06-27T19:57:46.900Z,4
2017-06-27T19:58:07.581Z,4
2017-06-27T19:58:28.262Z,4
2017-06-27T19:58:48.921Z,4
2017-06-27T19:59:10.397Z,4
2017-06-27T19:59:31.070Z,4
2017-06-27T19:59:52.407Z,4
2017-06-27T20:00:13.151Z,4
2017-06-27T20:00:33.832Z,4
2017-06-27T20:00:55.135Z,4
2017-06-27T20:01:15.800Z,4
2017-06-27T20:01:36.457Z,0
2017-06-27T20:01:57.943Z,0
2017-06-27T20:02:18.620Z,0
2017-06-27T20:02:39.325Z,0
2017-06-27T20:03:00.908Z,0
2017-06-27T20:03:21.624Z,0
2017-06-27T20:03:42.482Z,0
2017-06-27T20:04:05.972Z,0
2017-06-27T20:04:27.355Z,0
2017-06-27T20:04:48.500Z,0
2017-06-27T20:05:09.221Z,0
2017-06-27T20:05:29.908Z,0
2017-06-27T20:05:50.645Z,0
2017-06-27T20:06:11.390Z,0
2017-06-27T20:06:32.657Z,0
2017-06-27T20:06:53.930Z,0
2017-06-27T20:07:15.451Z,0
2017-06-27T20:07:36.556Z,0
2017-06-27T20:07:57.203Z,0
2017-06-27T20:08:17.860Z,0
2017-06-27T20:08:38.544Z,0
2017-06-27T20:09:00.075Z,0
2017-06-27T20:09:20.727Z,0
2017-06-27T20:09:41.443Z,0
2017-06-27T20:10:01.976Z,0
2017-06-27T20:10:24.488Z,0
2017-06-27T20:10:45.175Z,0
2017-06-27T20:11:05.838Z,0
2017-06-27T20:11:26.667Z,0
2017-06-27T20:11:47.398Z,0
2017-06-27T20:12:08.100Z,0
2017-06-27T20:12:28.776Z,0
2017-06-27T20:12:49.497Z,0
2017-06-27T20:13:10.998Z,0
2017-06-27T20:13:34.501Z,0
2017-06-27T20:13:55.138Z,0
2017-06-27T20:14:16.183Z,0
2017-06-27T20:14:36.859Z,0
2017-06-27T20:14:57.638Z,0
2017-06-27T20:15:20.519Z,0
2017-06-27T20:15:41.905Z,0
2017-06-27T20:16:02.564Z,0
2017-06-27T20:16:25.432Z,0
2017-06-27T20:16:46.957Z,0
2017-06-27T20:17:07.635Z,0
2017-06-27T20:17:28.405Z,0
2017-06-27T20:17:49.051Z,0
2017-06-27T20:18:09.699Z,0
2017-06-27T20:18:31.027Z,0
2017-06-27T20:18:52.109Z,0
2017-06-27T20:19:13.530Z,0
2017-06-27T20:19:34.239Z,0
2017-06-27T20:19:55.697Z,0
2017-06-27T20:20:17.026Z,0
2017-06-27T20:20:37.809Z,0
2017-06-27T20:20:58.460Z,0
2017-06-27T20:21:19.146Z,0
2017-06-27T20:21:39.835Z,0
2017-06-27T20:22:00.527Z,0
2017-06-27T20:22:21.208Z,0
2017-06-27T20:22:41.889Z,0
2017-06-27T20:23:02.693Z,0
2017-06-27T20:23:24.368Z,0
2017-06-27T20:23:45.923Z,0
2017-06-27T20:24:06.628Z,0
2017-06-27T20:24:27.404Z,0
2017-06-27T20:24:48.047Z,0
2017-06-27T20:25:08.711Z,0
2017-06-27T20:25:31.057Z,0
2017-06-27T20:25:57.561Z,0
2017-06-27T20:26:28.193Z,0
2017-06-27T20:26:48.868Z,0
2017-06-27T20:27:09.570Z,0
2017-06-27T20:27:30.232Z,0
2017-06-27T20:27:50.901Z,0
2017-06-27T20:28:11.593Z,0
2017-06-27T20:28:32.261Z,0
2017-06-27T20:28:52.949Z,0
2017-06-27T20:29:13.613Z,0
2017-06-27T20:29:34.998Z,0
2017-06-27T20:29:55.653Z,0
2017-06-27T20:30:17.052Z,0
2017-06-27T20:30:37.709Z,0
2017-06-27T20:30:58.413Z,0
2017-06-27T20:31:19.085Z,0
2017-06-27T20:31:40.432Z,0
2017-06-27T20:32:01.127Z,0
2017-06-27T20:32:21.826Z,0
2017-06-27T20:32:42.500Z,0
2017-06-27T20:33:03.166Z,0
2017-06-27T20:33:23.829Z,0
2017-06-27T20:33:45.472Z,0
2017-06-27T20:34:06.140Z,0
2017-06-27T20:34:27.515Z,0
2017-06-27T20:34:48.181Z,0
2017-06-27T20:35:08.849Z,0
2017-06-27T20:35:30.055Z,0
2017-06-27T20:35:50.770Z,0
2017-06-27T20:36:11.413Z,0
2017-06-27T20:36:32.076Z,0
2017-06-27T20:36:52.736Z,0
2017-06-27T20:37:13.393Z,0
2017-06-27T20:37:35.047Z,0
2017-06-27T20:37:55.731Z,0
2017-06-27T20:38:16.404Z,0
2017-06-27T20:38:37.078Z,0
2017-06-27T20:38:57.735Z,0
2017-06-27T20:39:18.384Z,0
2017-06-27T20:39:39.054Z,0
2017-06-27T20:40:00.438Z,0
2017-06-27T20:40:21.111Z,0
2017-06-27T20:40:41.764Z,0
2017-06-27T20:41:04.438Z,0
2017-06-27T20:41:25.115Z,0
2017-06-27T20:41:45.851Z,0
2017-06-27T20:42:06.497Z,0
2017-06-27T20:42:27.176Z,0
2017-06-27T20:42:48.458Z,0
2017-06-27T20:43:09.128Z,0
2017-06-27T20:43:29.813Z,0
2017-06-27T20:43:50.504Z,0
2017-06-27T20:44:12.039Z,0
2017-06-27T20:44:32.705Z,0
2017-06-27T20:44:53.365Z,0
2017-06-27T20:45:14.009Z,0
2017-06-27T20:45:34.661Z,0
2017-06-27T20:45:55.326Z,0
2017-06-27T20:46:16.036Z,0
2017-06-27T20:46:36.692Z,0
2017-06-27T20:46:57.342Z,0
2017-06-27T20:47:18.044Z,0
2017-06-27T20:47:38.695Z,0
2017-06-27T20:47:59.347Z,0
2017-06-27T20:48:20.006Z,0
2017-06-27T20:48:42.041Z,0
2017-06-27T20:49:02.720Z,0
2017-06-27T20:49:23.367Z,0
2017-06-27T20:49:45.119Z,0
2017-06-27T20:50:05.964Z,0
2017-06-27T20:50:27.516Z,0
2017-06-27T20:50:49.153Z,0
2017-06-27T20:51:10.562Z,0
2017-06-27T20:51:31.241Z,0
2017-06-27T20:51:51.912Z,0
2017-06-27T20:52:14.553Z,0
2017-06-27T20:52:35.217Z,0
2017-06-27T20:52:56.567Z,0
2017-06-27T20:53:18.041Z,0
2017-06-27T20:53:38.684Z,0
2017-06-27T20:53:59.354Z,0
2017-06-27T20:54:20.056Z,0
2017-06-27T20:54:41.607Z,0
2017-06-27T20:55:03.096Z,0
2017-06-27T20:55:23.748Z,0
2017-06-27T20:55:45.021Z,0
2017-06-27T20:56:05.752Z,0
2017-06-27T20:56:26.409Z,0
2017-06-27T20:56:48.058Z,0
2017-06-27T20:57:08.725Z,0
2017-06-27T20:57:29.978Z,0
2017-06-27T20:57:50.629Z,0
2017-06-27T20:58:11.302Z,0
2017-06-27T20:58:31.992Z,0
2017-06-27T20:59:12.233Z,0
2017-06-27T20:59:32.888Z,0
2017-06-27T20:59:53.558Z,0
2017-06-27T21:00:14.289Z,0
2017-06-27T21:00:34.943Z,0
2017-06-27T21:00:55.619Z,0
2017-06-27T21:01:16.325Z,0
2017-06-27T21:01:37.967Z,0
2017-06-27T21:01:59.614Z,0
2017-06-27T21:02:21.157Z,0
2017-06-27T21:02:42.555Z,0
2017-06-27T21:03:04.080Z,0
2017-06-27T21:03:25.551Z,0
2017-06-27T21:03:46.957Z,0
2017-06-27T21:04:07.637Z,0
2017-06-27T21:04:29.955Z,0
2017-06-27T21:04:51.570Z,0
2017-06-27T21:05:13.060Z,0
2017-06-27T21:05:34.529Z,0
2017-06-27T21:05:55.223Z,0
2017-06-27T21:06:16.581Z,0
2017-06-27T21:06:37.266Z,0
2017-06-27T21:06:57.917Z,0
2017-06-27T21:07:19.452Z,0
2017-06-27T21:07:40.148Z,0
2017-06-27T21:08:00.815Z,0
2017-06-27T21:08:23.086Z,0
2017-06-27T21:08:43.799Z,0
2017-06-27T21:09:04.446Z,0
2017-06-27T21:09:25.102Z,0
2017-06-27T21:09:45.794Z,0
2017-06-27T21:10:06.474Z,0
2017-06-27T21:10:27.148Z,0
2017-06-27T21:10:47.859Z,0
2017-06-27T21:11:08.527Z,0
2017-06-27T21:11:29.226Z,0
2017-06-27T21:11:49.891Z,0
2017-06-27T21:12:10.535Z,0
2017-06-27T21:12:31.182Z,0
2017-06-27T21:12:52.638Z,0
2017-06-27T21:13:13.297Z,0
2017-06-27T21:13:35.574Z,0
2017-06-27T21:13:56.308Z,0
2017-06-27T21:14:17.551Z,0
2017-06-27T21:14:40.061Z,0
2017-06-27T21:15:00.769Z,0
2017-06-27T21:15:21.424Z,0
2017-06-27T21:15:42.079Z,0
2017-06-27T21:16:02.744Z,0
2017-06-27T21:16:23.426Z,0
2017-06-27T21:16:44.087Z,0
2017-06-27T21:17:05.540Z,0
2017-06-27T21:17:26.254Z,0
2017-06-27T21:17:46.909Z,0
2017-06-27T21:18:07.577Z,0
2017-06-27T21:18:29.118Z,0
2017-06-27T21:18:49.843Z,0
2017-06-27T21:19:10.503Z,0
2017-06-27T21:19:31.175Z,0
2017-06-27T21:19:51.850Z,0
2017-06-27T21:20:12.513Z,0
2017-06-27T21:20:34.072Z,0
2017-06-27T21:20:56.062Z,0
2017-06-27T21:21:17.560Z,0
2017-06-27T21:21:38.305Z,0
2017-06-27T21:21:59.548Z,0
2017-06-27T21:22:20.197Z,0
2017-06-27T21:22:40.901Z,0
2017-06-27T21:23:01.577Z,0
2017-06-27T21:23:22.275Z,0
2017-06-27T21:23:42.976Z,0
2017-06-27T21:24:03.662Z,0
2017-06-27T21:24:25.968Z,0
2017-06-27T21:24:47.497Z,0
2017-06-27T21:25:09.075Z,0
2017-06-27T21:25:30.473Z,0
2017-06-27T21:25:51.174Z,0
2017-06-27T21:26:11.816Z,0
2017-06-27T21:26:32.519Z,0
2017-06-27T21:26:53.972Z,0
2017-06-27T21:27:14.644Z,0
2017-06-27T21:27:35.299Z,0
2017-06-27T21:27:55.980Z,0
2017-06-27T21:28:16.656Z,0
2017-06-27T21:28:37.355Z,0
2017-06-27T21:28:58.008Z,0
2017-06-27T21:29:18.700Z,0
2017-06-27T21:29:41.072Z,0
2017-06-27T21:30:01.782Z,0
2017-06-27T21:30:23.089Z,0
2017-06-27T21:30:43.802Z,0
2017-06-27T21:31:04.462Z,0
2017-06-27T21:31:25.161Z,0
2017-06-27T21:31:45.830Z,0
2017-06-27T21:32:07.083Z,0
2017-06-27T21:32:27.757Z,0
2017-06-27T21:32:48.436Z,0
2017-06-27T21:33:09.112Z,0
2017-06-27T21:33:29.812Z,0
2017-06-27T21:33:50.499Z,0
2017-06-27T21:34:11.163Z,0
2017-06-27T21:34:31.868Z,0
2017-06-27T21:34:52.528Z,0
2017-06-27T21:35:13.205Z,0
2017-06-27T21:35:34.635Z,0
2017-06-27T21:35:55.303Z,0
2017-06-27T21:36:16.494Z,0
2017-06-27T21:36:37.191Z,0
2017-06-27T21:36:57.840Z,0
2017-06-27T21:37:18.495Z,0
2017-06-27T21:37:39.195Z,0
2017-06-27T21:37:59.946Z,0
2017-06-27T21:38:20.606Z,0
2017-06-27T21:38:41.306Z,0
2017-06-27T21:39:01.984Z,0
2017-06-27T21:39:23.738Z,0
2017-06-27T21:39:46.403Z,0
2017-06-27T21:40:08.981Z,0
2017-06-27T21:40:29.745Z,0
2017-06-27T21:40:50.451Z,0
2017-06-27T21:41:11.144Z,0
2017-06-27T21:41:31.826Z,0
2017-06-27T21:41:52.482Z,0
2017-06-27T21:42:13.149Z,0
2017-06-27T21:42:33.815Z,0
2017-06-27T21:42:54.506Z,0
2017-06-27T21:43:16.080Z,0
2017-06-27T21:43:36.733Z,0
2017-06-27T21:43:58.065Z,0
2017-06-27T21:44:18.744Z,0
2017-06-27T21:44:39.466Z,0
2017-06-27T21:45:00.157Z,0
2017-06-27T21:45:22.976Z,0
2017-06-27T21:45:43.660Z,0
2017-06-27T21:46:04.331Z,0
2017-06-27T21:46:25.624Z,0
2017-06-27T21:46:46.308Z,0
2017-06-27T21:47:07.584Z,0
2017-06-27T21:47:28.270Z,0
2017-06-27T21:47:48.981Z,0
2017-06-27T21:48:09.658Z,0
2017-06-27T21:48:30.316Z,0
2017-06-27T21:48:51.659Z,0
2017-06-27T21:49:12.388Z,0
2017-06-27T21:49:34.985Z,0
2017-06-27T21:49:57.481Z,0
2017-06-27T21:50:19.121Z,0
2017-06-27T21:50:39.863Z,0
2017-06-27T21:51:00.539Z,0
2017-06-27T21:51:21.204Z,0
2017-06-27T21:51:41.886Z,0
2017-06-27T21:52:02.546Z,0
2017-06-27T21:52:24.059Z,0
2017-06-27T21:52:44.743Z,0
2017-06-27T21:53:06.002Z,0
2017-06-27T21:53:26.676Z,0
2017-06-27T21:53:47.348Z,0
2017-06-27T21:54:08.017Z,0
2017-06-27T21:54:29.512Z,0
2017-06-27T21:54:50.183Z,0
2017-06-27T21:55:10.832Z,0
2017-06-27T21:55:31.499Z,0
2017-06-27T21:55:52.181Z,0
2017-06-27T21:56:13.666Z,0
2017-06-27T21:56:34.314Z,0
2017-06-27T21:56:54.995Z,0
2017-06-27T21:57:15.682Z,0
2017-06-27T21:57:36.402Z,0
2017-06-27T21:57:57.188Z,0
2017-06-27T21:58:17.847Z,0
2017-06-27T21:58:39.177Z,0
2017-06-27T21:58:59.836Z,0
2017-06-27T21:59:20.506Z,0
2017-06-27T21:59:42.001Z,0
2017-06-27T22:00:02.659Z,0
2017-06-27T22:00:23.346Z,0
2017-06-27T22:00:44.063Z,0
2017-06-27T22:01:04.735Z,0
2017-06-27T22:01:25.509Z,0
2017-06-27T22:01:46.154Z,0
2017-06-27T22:02:07.707Z,0
2017-06-27T22:02:28.401Z,0
2017-06-27T22:02:49.618Z,0
2017-06-27T22:03:10.287Z,0
2017-06-27T22:03:31.611Z,0
2017-06-27T22:03:52.357Z,0
2017-06-27T22:04:13.021Z,0
2017-06-27T22:04:33.673Z,0
2017-06-27T22:04:54.330Z,0
2017-06-27T22:05:15.019Z,0
2017-06-27T22:05:35.676Z,0
2017-06-27T22:05:56.353Z,0
2017-06-27T22:06:18.001Z,0
2017-06-27T22:06:38.684Z,0
2017-06-27T22:06:59.348Z,0
2017-06-27T22:07:20.736Z,0
2017-06-27T22:07:41.463Z,0
2017-06-27T22:08:04.004Z,0
2017-06-27T22:08:25.615Z,0
2017-06-27T22:08:46.316Z,0
2017-06-27T22:09:06.965Z,0
2017-06-27T22:09:27.652Z,0
2017-06-27T22:09:48.464Z,0
2017-06-27T22:10:09.141Z,0
2017-06-27T22:10:29.815Z,0
2017-06-27T22:10:50.472Z,0
2017-06-27T22:11:11.161Z,0
2017-06-27T22:11:32.510Z,0
2017-06-27T22:11:53.221Z,0
2017-06-27T22:12:13.882Z,0
2017-06-27T22:12:34.558Z,0
2017-06-27T22:12:55.264Z,0
2017-06-27T22:13:15.912Z,0
2017-06-27T22:13:37.124Z,0
2017-06-27T22:13:57.793Z,0
2017-06-27T22:14:18.482Z,0
2017-06-27T22:14:40.042Z,0
2017-06-27T22:15:00.764Z,0
2017-06-27T22:15:21.407Z,0
2017-06-27T22:15:43.008Z,0
2017-06-27T22:16:03.719Z,0
2017-06-27T22:16:24.410Z,0
2017-06-27T22:16:45.238Z,0
2017-06-27T22:17:05.898Z,0
2017-06-27T22:17:26.577Z,0
2017-06-27T22:17:47.250Z,0
2017-06-27T22:18:07.927Z,0
2017-06-27T22:18:28.627Z,0
2017-06-27T22:18:49.307Z,0
2017-06-27T22:19:09.975Z,0
2017-06-27T22:19:30.632Z,0
2017-06-27T22:19:52.253Z,0
2017-06-27T22:20:12.918Z,0
2017-06-27T22:20:33.620Z,0
2017-06-27T22:20:54.329Z,0
2017-06-27T22:21:15.036Z,0
2017-06-27T22:21:36.539Z,0
2017-06-27T22:21:57.191Z,0
2017-06-27T22:22:17.881Z,0
2017-06-27T22:22:38.577Z,0
2017-06-27T22:22:59.260Z,0
2017-06-27T22:23:19.993Z,0
2017-06-27T22:23:40.680Z,0
2017-06-27T22:24:01.348Z,0
2017-06-27T22:24:22.544Z,0
2017-06-27T22:24:43.262Z,0
2017-06-27T22:25:03.958Z,0
2017-06-27T22:25:24.630Z,0
2017-06-27T22:25:45.308Z,0
2017-06-27T22:26:06.014Z,0
2017-06-27T22:26:26.670Z,0
2017-06-27T22:26:47.338Z,0
2017-06-27T22:27:07.991Z,0
2017-06-27T22:27:28.681Z,0
2017-06-27T22:27:49.361Z,0
2017-06-27T22:28:10.041Z,0
2017-06-27T22:28:30.732Z,0
2017-06-27T22:28:51.398Z,0
2017-06-27T22:29:12.081Z,0
2017-06-27T22:29:32.766Z,0
2017-06-27T22:29:53.414Z,0
2017-06-27T22:30:14.086Z,0
2017-06-27T22:30:34.748Z,0
2017-06-27T22:30:56.127Z,0
2017-06-27T22:31:16.804Z,0
2017-06-27T22:31:38.107Z,0
2017-06-27T22:31:58.762Z,0
2017-06-27T22:32:19.472Z,0
2017-06-27T22:32:40.753Z,0
2017-06-27T22:33:01.426Z,0
2017-06-27T22:33:22.110Z,0
2017-06-27T22:33:42.783Z,0
2017-06-27T22:34:03.507Z,0
2017-06-27T22:34:24.152Z,0
2017-06-27T22:34:45.515Z,0
2017-06-27T22:35:06.199Z,0
2017-06-27T22:35:26.915Z,0
2017-06-27T22:35:47.644Z,0
2017-06-27T22:36:08.357Z,0
2017-06-27T22:36:29.641Z,0
2017-06-27T22:36:50.320Z,0
2017-06-27T22:37:11.672Z,0
2017-06-27T22:37:33.258Z,0
2017-06-27T22:37:53.935Z,0
2017-06-27T22:38:15.211Z,0
2017-06-27T22:38:35.943Z,0
2017-06-27T22:38:56.637Z,0
2017-06-27T22:39:17.345Z,0
2017-06-27T22:39:38.752Z,0
2017-06-27T22:39:59.424Z,0
2017-06-27T22:40:20.121Z,0
2017-06-27T22:40:40.829Z,0
2017-06-27T22:41:02.203Z,0
2017-06-27T22:41:22.906Z,0
2017-06-27T22:41:43.572Z,0
2017-06-27T22:42:04.257Z,0
2017-06-27T22:42:25.615Z,0
2017-06-27T22:42:46.276Z,0
2017-06-27T22:43:06.970Z,0
2017-06-27T22:43:27.627Z,0
2017-06-27T22:43:48.273Z,0
2017-06-27T22:44:09.647Z,0
2017-06-27T22:44:30.296Z,0
2017-06-27T22:44:51.731Z,0
2017-06-27T22:45:12.435Z,0
2017-06-27T22:45:33.627Z,0
2017-06-27T22:45:55.116Z,0
2017-06-27T22:46:15.779Z,0
2017-06-27T22:46:37.112Z,0
2017-06-27T22:46:57.793Z,0
2017-06-27T22:47:18.492Z,0
2017-06-27T22:47:39.221Z,0
2017-06-27T22:47:59.905Z,0
2017-06-27T22:48:20.565Z,0
2017-06-27T22:48:42.657Z,0
2017-06-27T22:49:04.150Z,0
2017-06-27T22:49:24.809Z,0
2017-06-27T22:49:46.209Z,0
2017-06-27T22:50:07.677Z,0
2017-06-27T22:50:29.222Z,0
2017-06-27T22:50:49.910Z,0
2017-06-27T22:51:10.597Z,0
2017-06-27T22:51:31.324Z,0
2017-06-27T22:51:52.026Z,0
2017-06-27T22:52:12.748Z,0
2017-06-27T22:52:33.426Z,0
2017-06-27T22:52:54.088Z,0
2017-06-27T22:53:15.702Z,0
2017-06-27T22:53:36.360Z,0
2017-06-27T22:53:58.121Z,0
2017-06-27T22:54:18.785Z,0
2017-06-27T22:54:39.483Z,0
2017-06-27T22:55:00.186Z,0
2017-06-27T22:55:21.616Z,0
2017-06-27T22:55:43.041Z,0
2017-06-27T22:56:03.790Z,0
2017-06-27T22:56:26.166Z,0
2017-06-27T22:56:47.541Z,0
2017-06-27T22:57:09.153Z,0
2017-06-27T22:57:29.819Z,0
2017-06-27T22:57:51.136Z,0
2017-06-27T22:58:12.068Z,0
2017-06-27T22:58:32.787Z,0
2017-06-27T22:58:53.507Z,0
2017-06-27T22:59:14.247Z,0
2017-06-27T22:59:34.976Z,0
2017-06-27T22:59:56.168Z,0
2017-06-27T23:00:16.849Z,0
2017-06-27T23:00:37.579Z,0
2017-06-27T23:00:58.256Z,0
2017-06-27T23:01:18.992Z,0
2017-06-27T23:01:40.219Z,0
2017-06-27T23:02:02.552Z,0
2017-06-27T23:02:23.225Z,0
2017-06-27T23:02:43.909Z,0
2017-06-27T23:03:04.683Z,0
2017-06-27T23:03:28.063Z,0
2017-06-27T23:03:48.825Z,0
2017-06-27T23:04:09.531Z,0
2017-06-27T23:04:30.184Z,0
2017-06-27T23:04:50.950Z,0
2017-06-27T23:05:11.632Z,0
2017-06-27T23:05:32.338Z,0
2017-06-27T23:05:53.020Z,0
2017-06-27T23:06:14.342Z,0
2017-06-27T23:06:35.634Z,0
2017-06-27T23:06:56.315Z,0
2017-06-27T23:07:17.002Z,0
2017-06-27T23:07:37.714Z,0
2017-06-27T23:07:59.050Z,0
2017-06-27T23:08:19.728Z,0
2017-06-27T23:08:40.449Z,0
2017-06-27T23:09:01.173Z,0
2017-06-27T23:09:21.852Z,0
2017-06-27T23:09:42.535Z,0
2017-06-27T23:10:03.195Z,0
2017-06-27T23:10:23.853Z,0
2017-06-27T23:10:44.520Z,0
2017-06-27T23:11:06.177Z,0
2017-06-27T23:11:26.874Z,0
2017-06-27T23:11:47.533Z,0
2017-06-27T23:12:09.625Z,0
2017-06-27T23:12:30.323Z,0
2017-06-27T23:12:51.004Z,0
2017-06-27T23:13:11.680Z,0
2017-06-27T23:13:33.282Z,0
2017-06-27T23:13:53.964Z,0
2017-06-27T23:14:14.652Z,0
2017-06-27T23:14:35.326Z,0
2017-06-27T23:14:56.018Z,0
2017-06-27T23:15:16.684Z,0
2017-06-27T23:15:37.328Z,0
2017-06-27T23:15:58.549Z,0
2017-06-27T23:16:19.238Z,0
2017-06-27T23:16:40.724Z,0
2017-06-27T23:17:01.418Z,0
2017-06-27T23:17:22.104Z,0
2017-06-27T23:17:42.824Z,0
2017-06-27T23:18:03.517Z,0
2017-06-27T23:18:25.156Z,0
2017-06-27T23:18:45.857Z,0
2017-06-27T23:19:06.551Z,0
2017-06-27T23:19:27.246Z,0
2017-06-27T23:19:47.925Z,0
2017-06-27T23:20:09.258Z,0
2017-06-27T23:20:29.943Z,0
2017-06-27T23:20:50.620Z,0
2017-06-27T23:21:11.297Z,0
2017-06-27T23:21:31.969Z,0
2017-06-27T23:21:53.155Z,0
2017-06-27T23:22:13.872Z,0
2017-06-27T23:22:35.559Z,0
2017-06-27T23:22:56.255Z,0
2017-06-27T23:23:16.974Z,0
2017-06-27T23:23:37.671Z,0
2017-06-27T23:23:58.415Z,0
2017-06-27T23:24:19.123Z,0
2017-06-27T23:24:39.787Z,0
2017-06-27T23:25:02.263Z,0
2017-06-27T23:25:22.968Z,0
2017-06-27T23:25:43.669Z,0
2017-06-27T23:26:04.357Z,0
2017-06-27T23:26:25.645Z,0
2017-06-27T23:26:47.238Z,0
2017-06-27T23:27:08.856Z,0
2017-06-27T23:27:30.142Z,0
2017-06-27T23:27:50.797Z,0
2017-06-27T23:28:12.074Z,0
2017-06-27T23:28:32.762Z,0
2017-06-27T23:28:54.124Z,0
2017-06-27T23:29:14.813Z,0
2017-06-27T23:29:36.285Z,0
2017-06-27T23:29:56.985Z,0
2017-06-27T23:30:17.702Z,0
2017-06-27T23:30:38.361Z,0
2017-06-27T23:31:00.066Z,0
2017-06-27T23:31:20.722Z,0
2017-06-27T23:31:41.415Z,0
2017-06-27T23:32:02.078Z,0
2017-06-27T23:32:22.774Z,0
2017-06-27T23:32:43.456Z,0
2017-06-27T23:33:04.138Z,0
2017-06-27T23:33:25.678Z,0
2017-06-27T23:33:46.369Z,0
2017-06-27T23:34:07.035Z,0
2017-06-27T23:34:27.701Z,0
2017-06-27T23:34:49.167Z,0
2017-06-27T23:35:09.834Z,0
2017-06-27T23:35:30.481Z,0
2017-06-27T23:35:51.190Z,0
2017-06-27T23:36:11.866Z,0
2017-06-27T23:36:32.549Z,0
2017-06-27T23:36:53.250Z,0
2017-06-27T23:37:13.965Z,0
2017-06-27T23:37:34.670Z,0
2017-06-27T23:37:56.096Z,0
2017-06-27T23:38:17.350Z,0
2017-06-27T23:38:38.054Z,0
2017-06-27T23:38:58.721Z,0
2017-06-27T23:39:19.400Z,0
2017-06-27T23:39:40.058Z,0
2017-06-27T23:40:01.563Z,0
2017-06-27T23:40:22.232Z,0
2017-06-27T23:40:43.645Z,0
2017-06-27T23:41:04.297Z,0
2017-06-27T23:41:24.997Z,0
2017-06-27T23:41:46.574Z,0
2017-06-27T23:42:07.255Z,0
2017-06-27T23:42:27.961Z,0
2017-06-27T23:42:48.635Z,0
2017-06-27T23:43:09.300Z,0
2017-06-27T23:43:29.943Z,0
2017-06-27T23:43:50.614Z,0
2017-06-27T23:44:11.285Z,0
2017-06-27T23:44:31.949Z,0
2017-06-27T23:44:53.199Z,0
2017-06-27T23:45:13.885Z,0
2017-06-27T23:45:34.545Z,0
2017-06-27T23:45:57.120Z,0
2017-06-27T23:46:17.814Z,0
2017-06-27T23:46:38.519Z,0
2017-06-27T23:46:59.706Z,0
2017-06-27T23:47:20.371Z,0
2017-06-27T23:47:41.051Z,0
2017-06-27T23:48:02.572Z,0
2017-06-27T23:48:23.275Z,0
2017-06-27T23:48:43.996Z,0
2017-06-27T23:49:04.679Z,0
2017-06-27T23:49:25.356Z,0
2017-06-27T23:49:46.038Z,0
2017-06-27T23:50:06.713Z,0
2017-06-27T23:50:27.402Z,0
2017-06-27T23:50:48.101Z,0
2017-06-27T23:51:08.784Z,0
2017-06-27T23:51:29.442Z,0
2017-06-27T23:51:50.132Z,0
2017-06-27T23:52:10.776Z,0
2017-06-27T23:52:31.424Z,0
2017-06-27T23:52:53.583Z,0
2017-06-27T23:53:14.233Z,0
2017-06-27T23:53:34.891Z,0
2017-06-27T23:53:56.256Z,0
2017-06-27T23:54:17.688Z,0
2017-06-27T23:54:38.358Z,0
2017-06-27T23:54:59.676Z,0
2017-06-27T23:55:20.362Z,0
2017-06-27T23:55:41.098Z,0
2017-06-27T23:56:01.763Z,0
2017-06-27T23:56:22.479Z,0
2017-06-27T23:56:43.145Z,0
2017-06-27T23:57:03.838Z,0
2017-06-27T23:57:26.205Z,0
2017-06-27T23:57:46.873Z,0
2017-06-27T23:58:07.561Z,0
2017-06-27T23:58:28.758Z,0
2017-06-27T23:58:49.440Z,0
2017-06-27T23:59:10.130Z,0
2017-06-27T23:59:30.875Z,0
2017-06-27T23:59:51.535Z,0
